sensor_id;sensor_type;location;lat;lon;timestamp;pressure;altitude;pressure_sealevel;temperature;humidity
46347;BME280;32057;47.830;19.046;2024-02-14T00:01:33;100740.56;;;-0.35;100.00
46347;BME280;32057;47.830;19.046;2024-02-14T00:03:59;100742.47;;;-0.44;100.00
46347;BME280;32057;47.830;19.046;2024-02-14T00:06:24;100739.25;;;-0.42;100.00
46347;BME280;32057;47.830;19.046;2024-02-14T00:08:49;100742.66;;;-0.29;100.00
46347;BME280;32057;47.830;19.046;2024-02-14T00:11:15;100741.75;;;-0.18;100.00
46347;BME280;32057;47.830;19.046;2024-02-14T00:13:41;100742.22;;;-0.24;100.00
46347;BME280;32057;47.830;19.046;2024-02-14T00:16:06;100742.69;;;-0.41;100.00
46347;BME280;32057;47.830;19.046;2024-02-14T00:18:32;100742.59;;;-0.54;100.00
46347;BME280;32057;47.830;19.046;2024-02-14T00:20:57;100743.16;;;-0.58;100.00
46347;BME280;32057;47.830;19.046;2024-02-14T00:23:23;100752.94;;;-0.65;100.00
46347;BME280;32057;47.830;19.046;2024-02-14T00:25:48;100746.72;;;-0.56;100.00
46347;BME280;32057;47.830;19.046;2024-02-14T00:28:14;100752.38;;;-0.61;100.00
46347;BME280;32057;47.830;19.046;2024-02-14T00:30:39;100752.06;;;-0.77;100.00
46347;BME280;32057;47.830;19.046;2024-02-14T00:33:04;100753.38;;;-0.94;100.00
46347;BME280;32057;47.830;19.046;2024-02-14T00:35:30;100758.94;;;-0.99;100.00
46347;BME280;32057;47.830;19.046;2024-02-14T00:37:56;100766.25;;;-0.92;100.00
46347;BME280;32057;47.830;19.046;2024-02-14T00:40:21;100763.06;;;-1.02;100.00
46347;BME280;32057;47.830;19.046;2024-02-14T00:42:47;100768.69;;;-0.94;100.00
46347;BME280;32057;47.830;19.046;2024-02-14T00:45:13;100764.50;;;-0.93;100.00
46347;BME280;32057;47.830;19.046;2024-02-14T00:47:38;100774.28;;;-0.99;100.00
46347;BME280;32057;47.830;19.046;2024-02-14T00:50:04;100773.59;;;-1.09;100.00
46347;BME280;32057;47.830;19.046;2024-02-14T00:52:30;100762.50;;;-1.09;100.00
46347;BME280;32057;47.830;19.046;2024-02-14T00:54:55;100762.50;;;-0.97;100.00
46347;BME280;32057;47.830;19.046;2024-02-14T00:57:21;100768.06;;;-0.91;100.00
46347;BME280;32057;47.830;19.046;2024-02-14T00:59:51;100770.50;;;-0.81;100.00
46347;BME280;32057;47.830;19.046;2024-02-14T01:02:16;100770.94;;;-0.75;100.00
46347;BME280;32057;47.830;19.046;2024-02-14T01:04:43;100777.38;;;-0.68;100.00
46347;BME280;32057;47.830;19.046;2024-02-14T01:07:08;100770.63;;;-0.56;100.00
46347;BME280;32057;47.830;19.046;2024-02-14T01:09:34;100767.28;;;-0.67;100.00
46347;BME280;32057;47.830;19.046;2024-02-14T01:11:59;100766.28;;;-0.69;100.00
46347;BME280;32057;47.830;19.046;2024-02-14T01:14:24;100774.06;;;-0.79;100.00
46347;BME280;32057;47.830;19.046;2024-02-14T01:16:49;100769.06;;;-0.77;100.00
46347;BME280;32057;47.830;19.046;2024-02-14T01:19:15;100766.41;;;-0.79;100.00
46347;BME280;32057;47.830;19.046;2024-02-14T01:21:40;100768.69;;;-0.94;100.00
46347;BME280;32057;47.830;19.046;2024-02-14T01:24:05;100766.72;;;-1.10;100.00
46347;BME280;32057;47.830;19.046;2024-02-14T01:26:33;100776.88;;;-1.33;100.00
46347;BME280;32057;47.830;19.046;2024-02-14T01:28:58;100775.50;;;-1.40;100.00
46347;BME280;32057;47.830;19.046;2024-02-14T01:31:26;100777.53;;;-1.48;100.00
46347;BME280;32057;47.830;19.046;2024-02-14T01:33:51;100775.97;;;-1.46;100.00
46347;BME280;32057;47.830;19.046;2024-02-14T01:36:16;100772.91;;;-1.52;100.00
46347;BME280;32057;47.830;19.046;2024-02-14T01:38:42;100772.91;;;-1.52;100.00
46347;BME280;32057;47.830;19.046;2024-02-14T01:41:08;100773.47;;;-1.56;100.00
46347;BME280;32057;47.830;19.046;2024-02-14T01:43:33;100779.56;;;-1.54;100.00
46347;BME280;32057;47.830;19.046;2024-02-14T01:46:06;100777.19;;;-1.41;100.00
46347;BME280;32057;47.830;19.046;2024-02-14T01:48:33;100785.09;;;-1.37;100.00
46347;BME280;32057;47.830;19.046;2024-02-14T01:51:00;100785.34;;;-1.23;100.00
46347;BME280;32057;47.830;19.046;2024-02-14T01:53:27;100784.69;;;-1.08;100.00
46347;BME280;32057;47.830;19.046;2024-02-14T01:55:55;100785.88;;;-1.27;100.00
46347;BME280;32057;47.830;19.046;2024-02-14T01:58:20;100785.13;;;-1.26;100.00
46347;BME280;32057;47.830;19.046;2024-02-14T02:00:46;100787.19;;;-1.44;100.00
46347;BME280;32057;47.830;19.046;2024-02-14T02:03:12;100785.06;;;-1.49;100.00
46347;BME280;32057;47.830;19.046;2024-02-14T02:05:38;100793.25;;;-1.53;100.00
46347;BME280;32057;47.830;19.046;2024-02-14T02:08:04;100793.75;;;-1.69;100.00
46347;BME280;32057;47.830;19.046;2024-02-14T02:10:29;100785.16;;;-1.82;100.00
46347;BME280;32057;47.830;19.046;2024-02-14T02:12:58;100791.81;;;-1.84;100.00
46347;BME280;32057;47.830;19.046;2024-02-14T02:15:25;100788.00;;;-1.89;100.00
46347;BME280;32057;47.830;19.046;2024-02-14T02:17:51;100784.78;;;-1.86;100.00
46347;BME280;32057;47.830;19.046;2024-02-14T02:20:18;100796.41;;;-1.90;100.00
46347;BME280;32057;47.830;19.046;2024-02-14T02:22:47;100790.81;;;-1.96;100.00
46347;BME280;32057;47.830;19.046;2024-02-14T02:25:15;100796.00;;;-1.84;100.00
46347;BME280;32057;47.830;19.046;2024-02-14T02:27:40;100795.78;;;-1.87;100.00
46347;BME280;32057;47.830;19.046;2024-02-14T02:30:07;100791.81;;;-1.84;100.00
46347;BME280;32057;47.830;19.046;2024-02-14T02:32:33;100795.81;;;-1.75;100.00
46347;BME280;32057;47.830;19.046;2024-02-14T02:34:59;100800.47;;;-1.70;100.00
46347;BME280;32057;47.830;19.046;2024-02-14T02:37:27;100805.09;;;-1.66;100.00
46347;BME280;32057;47.830;19.046;2024-02-14T02:39:58;100803.00;;;-1.59;100.00
46347;BME280;32057;47.830;19.046;2024-02-14T02:42:23;100795.22;;;-1.61;100.00
46347;BME280;32057;47.830;19.046;2024-02-14T02:44:52;100798.78;;;-1.59;100.00
46347;BME280;32057;47.830;19.046;2024-02-14T02:47:17;100799.84;;;-1.67;100.00
46347;BME280;32057;47.830;19.046;2024-02-14T02:49:43;100799.38;;;-1.73;100.00
46347;BME280;32057;47.830;19.046;2024-02-14T02:52:10;100807.66;;;-1.76;100.00
46347;BME280;32057;47.830;19.046;2024-02-14T02:54:35;100812.22;;;-1.72;100.00
46347;BME280;32057;47.830;19.046;2024-02-14T02:57:01;100811.81;;;-1.66;100.00
46347;BME280;32057;47.830;19.046;2024-02-14T02:59:28;100808.34;;;-1.78;100.00
46347;BME280;32057;47.830;19.046;2024-02-14T03:01:55;100815.22;;;-1.77;100.00
46347;BME280;32057;47.830;19.046;2024-02-14T03:04:20;100818.66;;;-1.77;100.00
46347;BME280;32057;47.830;19.046;2024-02-14T03:06:46;100815.97;;;-1.78;100.00
46347;BME280;32057;47.830;19.046;2024-02-14T03:09:11;100812.84;;;-1.86;100.00
46347;BME280;32057;47.830;19.046;2024-02-14T03:11:37;100822.34;;;-1.95;100.00
46347;BME280;32057;47.830;19.046;2024-02-14T03:14:03;100819.34;;;-1.90;100.00
46347;BME280;32057;47.830;19.046;2024-02-14T03:16:29;100829.22;;;-1.94;100.00
46347;BME280;32057;47.830;19.046;2024-02-14T03:18:55;100830.63;;;-1.98;100.00
46347;BME280;32057;47.830;19.046;2024-02-14T03:21:20;100838.53;;;-1.95;100.00
46347;BME280;32057;47.830;19.046;2024-02-14T03:23:45;100834.97;;;-1.97;100.00
46347;BME280;32057;47.830;19.046;2024-02-14T03:26:11;100845.09;;;-2.09;100.00
46347;BME280;32057;47.830;19.046;2024-02-14T03:28:36;100839.59;;;-2.03;100.00
46347;BME280;32057;47.830;19.046;2024-02-14T03:31:01;100851.81;;;-1.99;100.00
46347;BME280;32057;47.830;19.046;2024-02-14T03:33:27;100845.66;;;-1.91;100.00
46347;BME280;32057;47.830;19.046;2024-02-14T03:35:54;100846.06;;;-1.96;100.00
46347;BME280;32057;47.830;19.046;2024-02-14T03:38:27;100846.31;;;-1.93;100.00
46347;BME280;32057;47.830;19.046;2024-02-14T03:40:53;100848.72;;;-1.95;100.00
46347;BME280;32057;47.830;19.046;2024-02-14T03:43:19;100847.59;;;-1.98;100.00
46347;BME280;32057;47.830;19.046;2024-02-14T03:45:45;100849.53;;;-2.06;100.00
46347;BME280;32057;47.830;19.046;2024-02-14T03:48:11;100855.16;;;-2.10;100.00
46347;BME280;32057;47.830;19.046;2024-02-14T03:50:38;100851.91;;;-2.19;100.00
46347;BME280;32057;47.830;19.046;2024-02-14T03:53:04;100851.78;;;-2.21;100.00
46347;BME280;32057;47.830;19.046;2024-02-14T03:55:29;100857.28;;;-2.27;100.00
46347;BME280;32057;47.830;19.046;2024-02-14T03:57:55;100861.59;;;-2.26;100.00
46347;BME280;32057;47.830;19.046;2024-02-14T04:00:21;100863.38;;;-2.25;100.00
46347;BME280;32057;47.830;19.046;2024-02-14T04:02:47;100859.94;;;-2.25;100.00
46347;BME280;32057;47.830;19.046;2024-02-14T04:05:14;100863.63;;;-2.22;100.00
46347;BME280;32057;47.830;19.046;2024-02-14T04:07:39;100869.22;;;-2.15;100.00
46347;BME280;32057;47.830;19.046;2024-02-14T04:10:05;100863.47;;;-2.13;100.00
46347;BME280;32057;47.830;19.046;2024-02-14T04:12:31;100876.56;;;-2.08;100.00
46347;BME280;32057;47.830;19.046;2024-02-14T04:14:57;100868.41;;;-2.04;100.00
46347;BME280;32057;47.830;19.046;2024-02-14T04:17:22;100885.19;;;-1.96;100.00
46347;BME280;32057;47.830;19.046;2024-02-14T04:19:49;100886.97;;;-1.95;100.00
46347;BME280;32057;47.830;19.046;2024-02-14T04:22:14;100891.44;;;-1.92;100.00
46347;BME280;32057;47.830;19.046;2024-02-14T04:24:39;100901.00;;;-2.00;100.00
46347;BME280;32057;47.830;19.046;2024-02-14T04:27:04;100899.25;;;-2.01;100.00
46347;BME280;32057;47.830;19.046;2024-02-14T04:29:30;100894.91;;;-2.02;100.00
46347;BME280;32057;47.830;19.046;2024-02-14T04:31:59;100892.34;;;-2.02;100.00
46347;BME280;32057;47.830;19.046;2024-02-14T04:34:24;100901.00;;;-2.00;100.00
46347;BME280;32057;47.830;19.046;2024-02-14T04:36:49;100897.06;;;-1.96;100.00
46347;BME280;32057;47.830;19.046;2024-02-14T04:39:15;100897.44;;;-2.02;100.00
46347;BME280;32057;47.830;19.046;2024-02-14T04:41:40;100899.00;;;-2.04;100.00
46347;BME280;32057;47.830;19.046;2024-02-14T04:44:05;100904.56;;;-1.98;100.00
46347;BME280;32057;47.830;19.046;2024-02-14T04:46:32;100910.81;;;-1.94;100.00
46347;BME280;32057;47.830;19.046;2024-02-14T04:48:58;100910.53;;;-1.87;100.00
46347;BME280;32057;47.830;19.046;2024-02-14T04:51:23;100913.22;;;-1.86;100.00
46347;BME280;32057;47.830;19.046;2024-02-14T04:53:48;100915.88;;;-1.84;100.00
46347;BME280;32057;47.830;19.046;2024-02-14T04:56:15;100921.38;;;-1.79;100.00
46347;BME280;32057;47.830;19.046;2024-02-14T04:58:40;100921.38;;;-1.79;100.00
46347;BME280;32057;47.830;19.046;2024-02-14T05:01:08;100920.75;;;-1.87;100.00
46347;BME280;32057;47.830;19.046;2024-02-14T05:03:37;100924.50;;;-2.04;100.00
46347;BME280;32057;47.830;19.046;2024-02-14T05:06:03;100921.44;;;-2.10;100.00
46347;BME280;32057;47.830;19.046;2024-02-14T05:08:28;100923.25;;;-2.09;100.00
46347;BME280;32057;47.830;19.046;2024-02-14T05:10:55;100925.94;;;-2.18;100.00
46347;BME280;32057;47.830;19.046;2024-02-14T05:13:20;100929.91;;;-2.22;100.00
46347;BME280;32057;47.830;19.046;2024-02-14T05:15:45;100936.28;;;-2.27;100.00
46347;BME280;32057;47.830;19.046;2024-02-14T05:18:11;100936.03;;;-2.19;100.00
46347;BME280;32057;47.830;19.046;2024-02-14T05:20:36;100941.00;;;-2.21;100.00
46347;BME280;32057;47.830;19.046;2024-02-14T05:23:03;100939.22;;;-2.32;100.00
46347;BME280;32057;47.830;19.046;2024-02-14T05:25:30;100945.34;;;-2.30;100.00
46347;BME280;32057;47.830;19.046;2024-02-14T05:27:58;100942.78;;;-2.30;100.00
46347;BME280;32057;47.830;19.046;2024-02-14T05:30:23;100945.72;;;-2.36;100.00
46347;BME280;32057;47.830;19.046;2024-02-14T05:32:49;100951.34;;;-2.40;100.00
46347;BME280;32057;47.830;19.046;2024-02-14T05:35:17;100949.97;;;-2.47;100.00
46347;BME280;32057;47.830;19.046;2024-02-14T05:37:43;100952.00;;;-2.53;100.00
46347;BME280;32057;47.830;19.046;2024-02-14T05:40:08;100953.16;;;-2.49;100.00
46347;BME280;32057;47.830;19.046;2024-02-14T05:42:34;100951.38;;;-2.61;100.00
46347;BME280;32057;47.830;19.046;2024-02-14T05:44:59;100959.00;;;-2.61;100.00
46347;BME280;32057;47.830;19.046;2024-02-14T05:47:24;100954.94;;;-2.69;100.00
46347;BME280;32057;47.830;19.046;2024-02-14T05:49:50;100963.84;;;-2.64;100.00
46347;BME280;32057;47.830;19.046;2024-02-14T05:52:16;100960.28;;;-2.66;100.00
46347;BME280;32057;47.830;19.046;2024-02-14T05:54:41;100968.31;;;-2.61;100.00
46347;BME280;32057;47.830;19.046;2024-02-14T05:57:07;100966.38;;;-2.64;100.00
46347;BME280;32057;47.830;19.046;2024-02-14T05:59:33;100973.53;;;-2.70;100.00
46347;BME280;32057;47.830;19.046;2024-02-14T06:01:58;100973.28;;;-2.73;100.00
46347;BME280;32057;47.830;19.046;2024-02-14T06:04:23;100973.78;;;-2.67;100.00
46347;BME280;32057;47.830;19.046;2024-02-14T06:06:49;100981.28;;;-2.68;100.00
46347;BME280;32057;47.830;19.046;2024-02-14T06:09:14;100976.84;;;-2.71;100.00
46347;BME280;32057;47.830;19.046;2024-02-14T06:11:39;100974.94;;;-2.63;100.00
46347;BME280;32057;47.830;19.046;2024-02-14T06:14:08;100979.38;;;-2.50;100.00
46347;BME280;32057;47.830;19.046;2024-02-14T06:16:34;100984.22;;;-2.33;100.00
46347;BME280;32057;47.830;19.046;2024-02-14T06:19:00;100984.72;;;-2.27;100.00
46347;BME280;32057;47.830;19.046;2024-02-14T06:21:26;100989.06;;;-2.46;100.00
46347;BME280;32057;47.830;19.046;2024-02-14T06:23:51;100990.59;;;-2.48;100.00
46347;BME280;32057;47.830;19.046;2024-02-14T06:26:17;100994.66;;;-2.40;100.00
46347;BME280;32057;47.830;19.046;2024-02-14T06:28:43;100994.03;;;-2.37;100.00
46347;BME280;32057;47.830;19.046;2024-02-14T06:31:08;100992.09;;;-2.30;100.00
46347;BME280;32057;47.830;19.046;2024-02-14T06:33:35;100997.84;;;-2.22;100.00
46347;BME280;32057;47.830;19.046;2024-02-14T06:36:00;101002.06;;;-2.23;100.00
46347;BME280;32057;47.830;19.046;2024-02-14T06:38:26;101000.50;;;-2.10;100.00
46347;BME280;32057;47.830;19.046;2024-02-14T06:40:51;101005.06;;;-1.96;100.00
46347;BME280;32057;47.830;19.046;2024-02-14T06:43:16;101002.50;;;-1.86;100.00
46347;BME280;32057;47.830;19.046;2024-02-14T06:45:42;101004.59;;;-1.70;100.00
46347;BME280;32057;47.830;19.046;2024-02-14T06:48:07;101003.81;;;-1.58;100.00
46347;BME280;32057;47.830;19.046;2024-02-14T06:50:33;100997.25;;;-1.45;100.00
46347;BME280;32057;47.830;19.046;2024-02-14T06:52:59;100998.19;;;-1.32;100.00
46347;BME280;32057;47.830;19.046;2024-02-14T06:55:28;101007.59;;;-1.21;100.00
46347;BME280;32057;47.830;19.046;2024-02-14T06:57:57;101011.09;;;-1.09;100.00
46347;BME280;32057;47.830;19.046;2024-02-14T07:00:22;101018.16;;;-0.94;100.00
46347;BME280;32057;47.830;19.046;2024-02-14T07:02:48;101021.97;;;-0.89;100.00
46347;BME280;32057;47.830;19.046;2024-02-14T07:05:13;101024.69;;;-0.76;100.00
46347;BME280;32057;47.830;19.046;2024-02-14T07:07:40;101025.41;;;-0.67;100.00
46347;BME280;32057;47.830;19.046;2024-02-14T07:10:06;101032.41;;;-0.64;100.00
46347;BME280;32057;47.830;19.046;2024-02-14T07:12:32;101028.00;;;-0.55;100.00
46347;BME280;32057;47.830;19.046;2024-02-14T07:14:57;101036.47;;;-0.44;100.00
46347;BME280;32057;47.830;19.046;2024-02-14T07:17:23;101026.19;;;-0.34;100.00
46347;BME280;32057;47.830;19.046;2024-02-14T07:19:48;101031.22;;;-0.24;100.00
46347;BME280;32057;47.830;19.046;2024-02-14T07:22:15;101031.53;;;-0.19;100.00
46347;BME280;32057;47.830;19.046;2024-02-14T07:24:41;101029.13;;;-0.06;100.00
46347;BME280;32057;47.830;19.046;2024-02-14T07:27:07;101030.59;;;0.14;100.00
46347;BME280;32057;47.830;19.046;2024-02-14T07:29:32;101032.47;;;0.29;100.00
46347;BME280;32057;47.830;19.046;2024-02-14T07:32:01;101034.59;;;0.46;100.00
46347;BME280;32057;47.830;19.046;2024-02-14T07:34:27;101032.13;;;0.59;100.00
46347;BME280;32057;47.830;19.046;2024-02-14T07:36:52;101028.84;;;0.74;100.00
46347;BME280;32057;47.830;19.046;2024-02-14T07:39:17;101029.75;;;0.86;100.00
46347;BME280;32057;47.830;19.046;2024-02-14T07:41:43;101028.72;;;0.96;100.00
46347;BME280;32057;47.830;19.046;2024-02-14T07:44:08;101023.22;;;1.03;100.00
46347;BME280;32057;47.830;19.046;2024-02-14T07:46:33;101029.19;;;1.15;100.00
46347;BME280;32057;47.830;19.046;2024-02-14T07:48:59;101027.84;;;1.21;100.00
46347;BME280;32057;47.830;19.046;2024-02-14T07:51:24;101024.66;;;1.36;100.00
46347;BME280;32057;47.830;19.046;2024-02-14T07:53:50;101033.19;;;1.49;100.00
46347;BME280;32057;47.830;19.046;2024-02-14T07:56:16;101026.53;;;1.64;100.00
46347;BME280;32057;47.830;19.046;2024-02-14T07:58:43;101025.78;;;1.78;100.00
46347;BME280;32057;47.830;19.046;2024-02-14T08:01:09;101027.28;;;1.88;100.00
46347;BME280;32057;47.830;19.046;2024-02-14T08:03:34;101031.84;;;2.06;100.00
46347;BME280;32057;47.830;19.046;2024-02-14T08:05:59;101026.03;;;2.08;100.00
46347;BME280;32057;47.830;19.046;2024-02-14T08:08:26;101032.44;;;2.15;100.00
46347;BME280;32057;47.830;19.046;2024-02-14T08:10:53;101034.72;;;2.24;100.00
46347;BME280;32057;47.830;19.046;2024-02-14T08:13:19;101038.78;;;2.20;100.00
46347;BME280;32057;47.830;19.046;2024-02-14T08:15:44;101037.19;;;2.22;100.00
46347;BME280;32057;47.830;19.046;2024-02-14T08:18:10;101037.28;;;2.24;100.00
46347;BME280;32057;47.830;19.046;2024-02-14T08:20:37;101033.75;;;2.48;100.00
46347;BME280;32057;47.830;19.046;2024-02-14T08:23:03;101033.16;;;2.66;100.00
46347;BME280;32057;47.830;19.046;2024-02-14T08:25:28;101037.47;;;2.80;100.00
46347;BME280;32057;47.830;19.046;2024-02-14T08:27:56;101044.97;;;2.90;100.00
46347;BME280;32057;47.830;19.046;2024-02-14T08:30:21;101044.94;;;3.04;100.00
46347;BME280;32057;47.830;19.046;2024-02-14T08:32:46;101051.34;;;3.10;100.00
46347;BME280;32057;47.830;19.046;2024-02-14T08:35:12;101045.25;;;3.23;100.00
46347;BME280;32057;47.830;19.046;2024-02-14T08:37:39;101041.25;;;3.42;100.00
46347;BME280;32057;47.830;19.046;2024-02-14T08:40:06;101046.31;;;3.55;100.00
46347;BME280;32057;47.830;19.046;2024-02-14T08:42:33;101048.63;;;3.65;100.00
46347;BME280;32057;47.830;19.046;2024-02-14T08:44:58;101039.88;;;3.76;100.00
46347;BME280;32057;47.830;19.046;2024-02-14T08:47:24;101045.75;;;3.89;100.00
46347;BME280;32057;47.830;19.046;2024-02-14T08:49:49;101043.09;;;4.02;100.00
46347;BME280;32057;47.830;19.046;2024-02-14T08:52:14;101043.81;;;4.14;100.00
46347;BME280;32057;47.830;19.046;2024-02-14T08:54:40;101047.91;;;4.26;100.00
46347;BME280;32057;47.830;19.046;2024-02-14T08:57:05;101043.44;;;4.38;100.00
46347;BME280;32057;47.830;19.046;2024-02-14T08:59:30;101046.44;;;4.46;100.00
46347;BME280;32057;47.830;19.046;2024-02-14T09:01:56;101040.91;;;4.54;100.00
46347;BME280;32057;47.830;19.046;2024-02-14T09:04:21;101044.00;;;4.64;100.00
46347;BME280;32057;47.830;19.046;2024-02-14T09:06:47;101034.91;;;4.70;100.00
46347;BME280;32057;47.830;19.046;2024-02-14T09:09:12;101038.91;;;4.80;100.00
46347;BME280;32057;47.830;19.046;2024-02-14T09:11:39;101032.66;;;4.91;100.00
46347;BME280;32057;47.830;19.046;2024-02-14T09:14:06;101031.03;;;4.93;100.00
46347;BME280;32057;47.830;19.046;2024-02-14T09:16:35;101035.84;;;4.87;100.00
46347;BME280;32057;47.830;19.046;2024-02-14T09:19:00;101034.63;;;4.81;100.00
46347;BME280;32057;47.830;19.046;2024-02-14T09:21:26;101042.25;;;4.79;100.00
46347;BME280;32057;47.830;19.046;2024-02-14T09:23:53;101032.16;;;4.67;100.00
46347;BME280;32057;47.830;19.046;2024-02-14T09:26:18;101032.53;;;4.73;100.00
46347;BME280;32057;47.830;19.046;2024-02-14T09:28:43;101030.19;;;4.78;100.00
46347;BME280;32057;47.830;19.046;2024-02-14T09:31:09;101034.72;;;4.98;100.00
46347;BME280;32057;47.830;19.046;2024-02-14T09:33:36;101033.78;;;5.13;100.00
46347;BME280;32057;47.830;19.046;2024-02-14T09:36:03;101037.28;;;5.30;100.00
46347;BME280;32057;47.830;19.046;2024-02-14T09:38:29;101031.22;;;5.46;100.00
46347;BME280;32057;47.830;19.046;2024-02-14T09:40:58;101032.28;;;5.49;100.00
46347;BME280;32057;47.830;19.046;2024-02-14T09:43:30;101033.94;;;5.49;100.00
46347;BME280;32057;47.830;19.046;2024-02-14T09:45:58;101033.59;;;5.59;100.00
46347;BME280;32057;47.830;19.046;2024-02-14T09:48:23;101026.25;;;5.67;100.00
46347;BME280;32057;47.830;19.046;2024-02-14T09:50:49;101024.16;;;5.76;100.00
46347;BME280;32057;47.830;19.046;2024-02-14T09:53:15;101021.50;;;5.74;100.00
46347;BME280;32057;47.830;19.046;2024-02-14T09:55:41;101017.59;;;5.83;100.00
46347;BME280;32057;47.830;19.046;2024-02-14T09:58:06;101017.03;;;5.88;100.00
46347;BME280;32057;47.830;19.046;2024-02-14T10:00:35;101013.47;;;6.03;100.00
46347;BME280;32057;47.830;19.046;2024-02-14T10:03:00;101006.75;;;6.06;100.00
46347;BME280;32057;47.830;19.046;2024-02-14T10:05:26;101008.31;;;6.21;100.00
46347;BME280;32057;47.830;19.046;2024-02-14T10:07:51;100999.47;;;6.33;100.00
46347;BME280;32057;47.830;19.046;2024-02-14T10:10:16;100998.28;;;6.45;100.00
46347;BME280;32057;47.830;19.046;2024-02-14T10:12:42;100995.84;;;6.48;100.00
46347;BME280;32057;47.830;19.046;2024-02-14T10:15:08;100989.03;;;6.50;100.00
46347;BME280;32057;47.830;19.046;2024-02-14T10:17:34;100995.38;;;6.56;100.00
46347;BME280;32057;47.830;19.046;2024-02-14T10:20:01;100989.25;;;6.54;100.00
46347;BME280;32057;47.830;19.046;2024-02-14T10:22:39;100989.78;;;6.65;100.00
46347;BME280;32057;47.830;19.046;2024-02-14T10:25:06;100985.19;;;6.60;100.00
46347;BME280;32057;47.830;19.046;2024-02-14T10:27:36;100983.69;;;6.65;100.00
46347;BME280;32057;47.830;19.046;2024-02-14T10:30:04;100983.75;;;6.84;100.00
46347;BME280;32057;47.830;19.046;2024-02-14T10:32:29;100983.63;;;7.01;100.00
46347;BME280;32057;47.830;19.046;2024-02-14T10:34:55;100979.00;;;7.13;100.00
46347;BME280;32057;47.830;19.046;2024-02-14T10:37:21;100975.25;;;7.26;100.00
46347;BME280;32057;47.830;19.046;2024-02-14T10:39:46;100972.16;;;7.34;100.00
46347;BME280;32057;47.830;19.046;2024-02-14T10:42:15;100974.22;;;7.42;100.00
46347;BME280;32057;47.830;19.046;2024-02-14T10:44:40;100958.19;;;7.50;100.00
46347;BME280;32057;47.830;19.046;2024-02-14T10:47:10;100957.13;;;7.66;100.00
46347;BME280;32057;47.830;19.046;2024-02-14T10:49:37;100953.66;;;7.66;100.00
46347;BME280;32057;47.830;19.046;2024-02-14T10:52:05;100947.09;;;7.74;98.18
46347;BME280;32057;47.830;19.046;2024-02-14T10:54:35;100950.94;;;7.84;93.11
46347;BME280;32057;47.830;19.046;2024-02-14T10:57:04;100944.56;;;7.96;84.61
46347;BME280;32057;47.830;19.046;2024-02-14T10:59:32;100938.38;;;7.93;85.65
46347;BME280;32057;47.830;19.046;2024-02-14T11:01:59;100945.75;;;8.05;82.18
46347;BME280;32057;47.830;19.046;2024-02-14T11:04:25;100938.09;;;8.08;79.85
46347;BME280;32057;47.830;19.046;2024-02-14T11:06:53;100928.84;;;8.14;77.20
46347;BME280;32057;47.830;19.046;2024-02-14T11:09:21;100924.59;;;8.15;78.54
46347;BME280;32057;47.830;19.046;2024-02-14T11:11:47;100931.13;;;8.28;77.17
46347;BME280;32057;47.830;19.046;2024-02-14T11:14:18;100932.53;;;8.20;73.45
46347;BME280;32057;47.830;19.046;2024-02-14T11:16:45;100932.91;;;8.29;74.63
46347;BME280;32057;47.830;19.046;2024-02-14T11:19:12;100933.00;;;8.32;72.00
46347;BME280;32057;47.830;19.046;2024-02-14T11:21:42;100922.78;;;8.35;71.09
46347;BME280;32057;47.830;19.046;2024-02-14T11:24:10;100913.53;;;8.42;73.53
46347;BME280;32057;47.830;19.046;2024-02-14T11:26:50;100917.38;;;8.51;71.93
46347;BME280;32057;47.830;19.046;2024-02-14T11:29:19;100914.13;;;8.57;72.08
46347;BME280;32057;47.830;19.046;2024-02-14T11:31:45;100916.31;;;8.69;69.85
46347;BME280;32057;47.830;19.046;2024-02-14T11:34:14;100914.66;;;8.71;72.23
46347;BME280;32057;47.830;19.046;2024-02-14T11:36:44;100906.03;;;8.72;69.62
46347;BME280;32057;47.830;19.046;2024-02-14T11:39:13;100902.44;;;8.92;70.64
46347;BME280;32057;47.830;19.046;2024-02-14T11:41:39;100903.00;;;9.08;69.52
46347;BME280;32057;47.830;19.046;2024-02-14T11:44:05;100902.34;;;9.13;69.85
46347;BME280;32057;47.830;19.046;2024-02-14T11:46:31;100899.69;;;9.12;69.22
46347;BME280;32057;47.830;19.046;2024-02-14T11:48:58;100899.75;;;9.13;70.02
46347;BME280;32057;47.830;19.046;2024-02-14T11:51:27;100906.66;;;9.13;71.28
46347;BME280;32057;47.830;19.046;2024-02-14T11:53:52;100905.59;;;9.08;69.08
46347;BME280;32057;47.830;19.046;2024-02-14T11:56:17;100907.25;;;9.06;69.42
46347;BME280;32057;47.830;19.046;2024-02-14T11:58:43;100900.19;;;9.02;70.50
46347;BME280;32057;47.830;19.046;2024-02-14T12:01:08;100897.59;;;9.02;71.62
46347;BME280;32057;47.830;19.046;2024-02-14T12:03:35;100891.75;;;9.07;72.58
46347;BME280;32057;47.830;19.046;2024-02-14T12:06:01;100897.94;;;9.11;69.56
46347;BME280;32057;47.830;19.046;2024-02-14T12:08:28;100900.63;;;9.14;67.43
46347;BME280;32057;47.830;19.046;2024-02-14T12:10:53;100885.16;;;9.17;67.76
46347;BME280;32057;47.830;19.046;2024-02-14T12:13:22;100887.91;;;9.22;69.86
46347;BME280;32057;47.830;19.046;2024-02-14T12:15:49;100894.81;;;9.21;68.46
46347;BME280;32057;47.830;19.046;2024-02-14T12:18:20;100891.50;;;9.25;69.08
46347;BME280;32057;47.830;19.046;2024-02-14T12:20:46;100896.31;;;9.14;68.45
46347;BME280;32057;47.830;19.046;2024-02-14T12:23:15;100899.13;;;8.96;67.60
46347;BME280;32057;47.830;19.046;2024-02-14T12:25:45;100890.66;;;9.01;67.34
46347;BME280;32057;47.830;19.046;2024-02-14T12:28:18;100891.41;;;8.98;67.29
46347;BME280;32057;47.830;19.046;2024-02-14T12:33:14;100879.56;;;9.06;68.48